Time;durP1;ratioP1;P1;durP2;ratioP2;P2;SDS_P1;SDS_P2;PMS_P1;PMS_P2;Temp;Humidity;BMP_temperature;BMP_pressure;BME280_temperature;BME280_humidity;BME280_pressure;Samples;Min_cycle;Max_cycle;Signal;HPM_P1;HPM_P2
2022/03/15 00:00:49;;;;;;;27.03;14.50;;;;;;;1.80;79.54;101434.88;5111446;28;20616;-52
2022/03/15 00:03:16;;;;;;;29.30;16.20;;;;;;;1.69;82.41;101442.97;5111712;28;20324;-51
2022/03/15 00:05:43;;;;;;;32.27;16.70;;;;;;;1.74;83.46;101441.44;5111546;28;20194;-52
2022/03/15 00:08:10;;;;;;;28.03;17.57;;;;;;;1.87;82.79;101443.66;5111632;28;20205;-52
2022/03/15 00:10:37;;;;;;;27.47;17.00;;;;;;;1.95;83.11;101442.22;5111581;28;20190;-51
2022/03/15 00:13:06;;;;;;;32.03;18.33;;;;;;;1.92;83.23;101441.28;5111408;28;20209;-51
2022/03/15 00:15:35;;;;;;;32.53;17.97;;;;;;;1.83;84.41;101441.78;5111548;28;20662;-50
2022/03/15 00:18:03;;;;;;;39.13;18.33;;;;;;;1.75;85.13;101436.38;5111712;28;20301;-49
2022/03/15 00:20:30;;;;;;;33.80;18.77;;;;;;;1.58;85.69;101405.84;5111527;28;20195;-51
2022/03/15 00:22:59;;;;;;;31.83;18.90;;;;;;;1.88;85.49;101439.41;5111085;28;20215;-51
2022/03/15 00:25:27;;;;;;;37.80;21.43;;;;;;;1.92;85.35;101431.03;5110562;28;20322;-51
2022/03/15 00:27:55;;;;;;;36.17;20.97;;;;;;;1.87;86.40;101428.28;5111102;28;20198;-51
2022/03/15 00:30:24;;;;;;;37.03;21.70;;;;;;;1.92;86.41;101431.03;5111633;28;20689;-50
2022/03/15 00:32:53;;;;;;;39.27;22.63;;;;;;;1.90;85.90;101428.41;5111187;28;20243;-50
2022/03/15 00:35:21;;;;;;;40.47;22.57;;;;;;;1.91;87.05;101434.41;5111229;28;20201;-52
2022/03/15 00:37:50;;;;;;;41.63;21.93;;;;;;;1.80;87.83;101431.44;5110966;28;20246;-53
2022/03/15 00:40:19;;;;;;;40.10;22.73;;;;;;;1.96;87.49;101431.19;5110974;28;20201;-51
2022/03/15 00:42:47;;;;;;;38.07;21.10;;;;;;;2.01;86.21;101434.78;5111194;28;20194;-51
2022/03/15 00:45:14;;;;;;;36.83;21.03;;;;;;;2.06;86.14;101433.25;5110904;28;20198;-51
2022/03/15 00:47:41;;;;;;;40.07;21.57;;;;;;;2.03;86.00;101432.28;5111134;28;20195;-50
2022/03/15 00:50:11;;;;;;;39.20;21.90;;;;;;;1.96;86.78;101431.19;5110732;28;20195;-52
2022/03/15 00:52:38;;;;;;;40.43;21.90;;;;;;;1.98;86.95;101432.09;5111054;28;20662;-51
2022/03/15 00:55:06;;;;;;;37.27;21.90;;;;;;;1.95;87.84;101420.88;5110730;28;20195;-52
2022/03/15 00:57:33;;;;;;;36.40;20.83;;;;;;;2.06;86.51;101427.25;5110827;28;20205;-55
2022/03/15 00:59:59;;;;;;;33.57;19.53;;;;;;;1.97;86.33;101403.88;5110845;28;20558;-52
2022/03/15 01:02:27;;;;;;;33.47;20.13;;;;;;;2.03;86.97;101429.72;5110823;28;20251;-52
2022/03/15 01:04:54;;;;;;;28.43;18.10;;;;;;;1.97;87.25;101424.38;5110618;28;20773;-52
2022/03/15 01:07:22;;;;;;;33.10;20.33;;;;;;;1.87;87.75;101425.72;5110618;28;20201;-52
2022/03/15 01:09:49;;;;;;;38.27;20.67;;;;;;;1.85;87.65;101414.53;5110666;28;20197;-52
2022/03/15 01:12:16;;;;;;;41.07;21.13;;;;;;;1.78;88.56;101410.03;5110816;28;20594;-52
2022/03/15 01:14:43;;;;;;;33.87;20.23;;;;;;;1.79;87.97;101409.22;5110813;28;20192;-51
2022/03/15 01:17:10;;;;;;;36.77;19.97;;;;;;;1.87;88.02;101404.38;5110530;28;20201;-52
2022/03/15 01:19:37;;;;;;;28.60;19.03;;;;;;;1.94;86.92;101407.19;5110583;28;20199;-52
2022/03/15 01:22:04;;;;;;;30.77;19.37;;;;;;;1.91;85.71;101407.09;5110567;28;20199;-52
2022/03/15 01:24:34;;;;;;;36.23;20.23;;;;;;;1.88;86.14;101404.41;5110442;28;20235;-51
2022/03/15 01:27:01;;;;;;;38.87;21.77;;;;;;;1.85;86.32;101404.31;5110708;28;20670;-51
2022/03/15 01:29:28;;;;;;;33.80;19.83;;;;;;;1.77;86.39;101395.47;5110628;28;20193;-51
2022/03/15 01:31:55;;;;;;;34.93;20.93;;;;;;;1.71;87.12;101397.78;5110506;28;20306;-50
2022/03/15 01:34:23;;;;;;;39.20;22.43;;;;;;;1.58;87.97;101388.78;5110450;28;20199;-49
2022/03/15 01:36:50;;;;;;;39.47;22.00;;;;;;;1.53;87.68;101392.88;5114442;28;20190;-48
2022/03/15 01:39:17;;;;;;;41.43;23.00;;;;;;;1.38;89.11;101390.59;5114751;28;20195;-51
2022/03/15 01:41:46;;;;;;;45.47;23.03;;;;;;;1.39;89.08;101384.69;5114446;28;20194;-51
2022/03/15 01:44:17;;;;;;;41.50;23.83;;;;;;;1.37;89.11;101377.75;5114269;28;20218;-51
2022/03/15 01:46:45;;;;;;;40.57;22.83;;;;;;;1.17;90.95;101389.78;5114425;28;20241;-51
2022/03/15 01:49:12;;;;;;;43.73;23.10;;;;;;;0.85;91.86;101355.28;5114182;28;20191;-50
2022/03/15 01:51:40;;;;;;;42.63;23.07;;;;;;;1.04;92.40;101390.97;5114335;28;20186;-50
2022/03/15 01:54:09;;;;;;;47.97;23.90;;;;;;;1.15;92.39;101385.41;5114442;28;20574;-49
2022/03/15 01:56:41;;;;;;;41.80;24.27;;;;;;;1.20;91.51;101384.78;5114479;28;20203;-50
2022/03/15 01:59:10;;;;;;;40.67;23.00;;;;;;;1.04;92.99;101383.31;5114717;28;20199;-50
2022/03/15 02:01:37;;;;;;;43.67;24.67;;;;;;;0.97;94.10;101347.22;5114192;28;20268;-49
2022/03/15 02:04:05;;;;;;;44.63;24.80;;;;;;;1.31;91.58;101372.41;5113882;28;20222;-49
2022/03/15 02:06:35;;;;;;;45.20;24.03;;;;;;;1.19;96.41;101377.94;5114279;28;20665;-52
2022/03/15 02:09:08;;;;;;;43.93;23.03;;;;;;;1.26;92.80;101379.03;5114087;28;20199;-52
2022/03/15 02:11:35;;;;;;;40.73;23.77;;;;;;;1.32;92.46;101384.41;5113990;28;20242;-52
2022/03/15 02:14:02;;;;;;;44.57;23.47;;;;;;;1.25;92.06;101388.38;5114173;28;20595;-52
2022/03/15 02:16:31;;;;;;;40.47;22.63;;;;;;;1.23;92.02;101386.59;5113850;28;20263;-52
2022/03/15 02:18:58;;;;;;;37.17;22.20;;;;;;;1.28;92.13;101405.53;5113908;28;20721;-52
2022/03/15 02:21:26;;;;;;;40.60;22.33;;;;;;;1.08;92.62;101394.53;5113712;28;20194;-50
2022/03/15 02:23:53;;;;;;;40.67;22.20;;;;;;;0.94;94.56;101404.22;5113596;28;20222;-51
2022/03/15 02:26:20;;;;;;;40.80;22.10;;;;;;;1.05;93.62;101408.06;5113486;28;20240;-52
2022/03/15 02:28:47;;;;;;;39.97;22.90;;;;;;;1.07;92.29;101400.47;5114112;28;20194;-51
2022/03/15 02:31:15;;;;;;;46.37;22.50;;;;;;;0.92;93.20;101412.63;5113737;28;20647;-52
2022/03/15 02:33:42;;;;;;;40.67;23.73;;;;;;;0.64;96.03;101413.19;5113576;28;20289;-51
2022/03/15 02:36:09;;;;;;;42.93;23.57;;;;;;;0.79;95.17;101420.63;5113473;28;20285;-50
2022/03/15 02:38:37;;;;;;;43.53;23.27;;;;;;;0.86;94.25;101425.19;5113479;28;20190;-51
2022/03/15 02:41:05;;;;;;;43.30;22.90;;;;;;;0.84;94.77;101434.47;5113295;28;20205;-52
2022/03/15 02:43:32;;;;;;;43.33;23.57;;;;;;;0.78;95.29;101432.53;5113169;28;20191;-55
2022/03/15 02:45:59;;;;;;;39.10;23.17;;;;;;;0.72;96.32;101437.38;5112998;28;20197;-51
2022/03/15 02:48:26;;;;;;;41.30;23.77;;;;;;;0.66;96.28;101429.47;5112369;28;20659;-52
2022/03/15 02:50:53;;;;;;;37.80;22.23;;;;;;;0.72;96.24;101422.94;5113269;28;20201;-52
2022/03/15 02:53:20;;;;;;;40.53;23.23;;;;;;;0.77;95.75;101429.91;5113124;28;20264;-50
2022/03/15 02:55:49;;;;;;;38.67;22.50;;;;;;;0.78;96.23;101434.22;5112943;28;20204;-51
2022/03/15 02:58:18;;;;;;;38.07;21.83;;;;;;;0.55;97.85;101426.47;5113082;28;20658;-50
2022/03/15 03:00:45;;;;;;;36.57;20.73;;;;;;;0.68;96.66;101418.47;5113014;28;20201;-50
2022/03/15 03:03:12;;;;;;;34.50;19.93;;;;;;;0.64;96.45;101421.75;5113053;28;20197;-50
2022/03/15 03:05:40;;;;;;;39.90;20.17;;;;;;;0.72;94.76;101414.38;5112818;28;20338;-50
2022/03/15 03:08:07;;;;;;;36.77;20.53;;;;;;;0.78;94.28;101413.78;5112851;28;20255;-51
2022/03/15 03:10:34;;;;;;;33.07;19.23;;;;;;;0.79;94.05;101410.41;5112725;28;20784;-51
2022/03/15 03:13:02;;;;;;;33.60;20.40;;;;;;;0.76;93.46;101412.84;5112672;28;20197;-51
2022/03/15 03:15:32;;;;;;;38.60;20.63;;;;;;;0.76;94.33;101416.25;5112943;28;20281;-51
2022/03/15 03:17:59;;;;;;;44.97;22.37;;;;;;;0.81;93.27;101399.41;5112672;28;20195;-52
2022/03/15 03:20:27;;;;;;;34.83;20.43;;;;;;;0.77;93.33;101394.13;5112764;28;20737;-50
2022/03/15 03:22:55;;;;;;;31.97;19.07;;;;;;;0.79;93.40;101389.97;5112401;28;20216;-51
2022/03/15 03:25:24;;;;;;;40.83;19.33;;;;;;;0.63;94.58;101386.78;5112314;28;20234;-50
2022/03/15 03:27:51;;;;;;;35.90;20.83;;;;;;;0.48;96.45;101388.69;5112597;28;20578;-50
2022/03/15 03:30:19;;;;;;;32.53;19.37;;;;;;;0.45;96.21;101391.13;5112450;28;20201;-50
2022/03/15 03:32:46;;;;;;;32.90;20.20;;;;;;;0.37;97.17;101389.91;5112576;28;20676;-50
2022/03/15 03:35:13;;;;;;;34.03;19.93;;;;;;;0.35;97.38;101386.41;5112363;28;20246;-52
2022/03/15 03:37:40;;;;;;;41.57;21.10;;;;;;;0.30;97.46;101382.81;5112280;28;20202;-52
2022/03/15 03:40:08;;;;;;;33.07;20.50;;;;;;;0.51;95.78;101376.03;5112331;28;20217;-52
2022/03/15 03:42:36;;;;;;;32.90;20.13;;;;;;;0.50;95.42;101376.84;5112109;28;20201;-51
2022/03/15 03:45:03;;;;;;;33.27;19.80;;;;;;;0.44;96.56;101376.63;5112214;28;20653;-49
2022/03/15 03:47:32;;;;;;;36.90;21.53;;;;;;;0.42;97.29;101380.78;5112107;28;20317;-52
2022/03/15 03:49:59;;;;;;;37.43;20.00;;;;;;;0.25;99.15;101374.06;5111936;28;20205;-51
2022/03/15 03:52:26;;;;;;;35.37;21.20;;;;;;;0.25;100.00;101376.63;5112005;28;20285;-50
2022/03/15 03:54:53;;;;;;;37.73;21.47;;;;;;;0.23;100.00;101370.56;5112141;28;20215;-48
2022/03/15 03:57:20;;;;;;;33.23;20.40;;;;;;;0.23;100.00;101375.69;5111769;28;20193;-52
2022/03/15 03:59:47;;;;;;;39.20;20.87;;;;;;;0.40;99.98;101369.63;5101661;28;20281;-51
2022/03/15 04:02:14;;;;;;;33.43;19.87;;;;;;;0.46;99.02;101369.84;5090401;28;20211;-51
2022/03/15 04:04:43;;;;;;;33.57;20.13;;;;;;;0.64;97.00;101367.19;5073839;28;20247;-51
2022/03/15 04:07:11;;;;;;;38.50;20.57;;;;;;;0.59;97.41;101367.00;5079122;28;20230;-52
2022/03/15 04:09:38;;;;;;;33.37;20.07;;;;;;;0.31;99.33;101359.91;5086994;28;20624;-51
2022/03/15 04:12:06;;;;;;;42.30;20.63;;;;;;;0.26;97.60;101332.41;5079016;28;20225;-51
2022/03/15 04:14:35;;;;;;;33.43;20.30;;;;;;;0.40;97.20;101356.84;5076834;28;20224;-50
2022/03/15 04:17:02;;;;;;;36.37;19.93;;;;;;;0.18;99.01;101341.44;5069735;28;20261;-52
2022/03/15 04:19:30;;;;;;;42.33;20.83;;;;;;;0.19;100.00;101361.06;5070052;28;20226;-52
2022/03/15 04:21:58;;;;;;;39.47;21.83;;;;;;;0.02;100.00;101329.69;5070154;28;20230;-51
2022/03/15 04:24:25;;;;;;;40.73;21.57;;;;;;;0.08;100.00;101347.84;5069930;28;20231;-51
2022/03/15 04:26:52;;;;;;;37.93;21.47;;;;;;;0.23;99.94;101352.69;5070199;28;20680;-52
2022/03/15 04:29:20;;;;;;;32.57;20.00;;;;;;;0.27;99.20;101369.91;5070338;28;20262;-51
2022/03/15 04:31:47;;;;;;;40.47;21.27;;;;;;;0.35;97.24;101368.53;5084061;28;20250;-51
2022/03/15 04:34:14;;;;;;;36.70;20.30;;;;;;;0.43;97.25;101366.31;5083052;28;21293;-49
2022/03/15 04:36:42;;;;;;;35.73;19.87;;;;;;;0.49;96.76;101371.69;5088312;28;20552;-51
2022/03/15 04:39:10;;;;;;;35.97;20.47;;;;;;;0.56;95.81;101368.59;5083761;28;20279;-51
2022/03/15 04:41:37;;;;;;;41.07;20.47;;;;;;;0.69;94.97;101355.47;5086651;28;20219;-50
2022/03/15 04:44:05;;;;;;;38.80;19.93;;;;;;;0.75;93.55;101357.41;5084682;28;20490;-50
2022/03/15 04:46:32;;;;;;;37.77;20.23;;;;;;;0.79;92.84;101356.75;5082052;28;20272;-50
2022/03/15 04:48:59;;;;;;;40.50;20.10;;;;;;;0.77;92.94;101355.81;5085136;28;20232;-50
2022/03/15 04:51:27;;;;;;;35.93;20.20;;;;;;;0.70;93.80;101352.97;5084540;28;20221;-52
2022/03/15 04:53:54;;;;;;;36.27;19.57;;;;;;;0.69;94.62;101364.00;5083446;28;20275;-48
2022/03/15 04:56:23;;;;;;;34.57;20.37;;;;;;;0.82;93.90;101352.59;5082566;28;20214;-51
2022/03/15 04:58:51;;;;;;;34.70;20.57;;;;;;;0.88;92.85;101340.06;5081321;28;20230;-51
2022/03/15 05:01:18;;;;;;;32.13;19.53;;;;;;;0.86;91.52;101345.94;5087498;28;20219;-49
2022/03/15 05:03:45;;;;;;;34.53;17.93;;;;;;;0.86;90.21;101366.38;5088986;28;20259;-50
2022/03/15 05:06:12;;;;;;;35.33;19.80;;;;;;;0.79;90.39;101365.25;5090202;28;20223;-49
2022/03/15 05:08:39;;;;;;;32.30;19.47;;;;;;;0.79;90.72;101366.97;5090343;28;20211;-50
2022/03/15 05:11:08;;;;;;;36.37;20.47;;;;;;;0.77;90.39;101372.00;5078609;28;20302;-50
2022/03/15 05:13:39;;;;;;;35.37;20.33;;;;;;;0.67;90.42;101370.75;5069360;28;20776;-49
2022/03/15 05:16:09;;;;;;;37.90;19.40;;;;;;;0.79;91.16;101369.53;5085086;28;20219;-49
2022/03/15 05:18:36;;;;;;;33.10;18.87;;;;;;;0.99;89.32;101378.84;5088755;28;20705;-50
2022/03/15 05:21:03;;;;;;;29.30;17.63;;;;;;;1.05;89.05;101385.06;5093893;28;20306;-49
2022/03/15 05:23:31;;;;;;;26.43;16.23;;;;;;;1.11;87.12;101388.69;5090619;28;20211;-48
2022/03/15 05:25:58;;;;;;;26.83;15.77;;;;;;;1.18;86.01;101393.22;5085190;28;20714;-50
2022/03/15 05:28:25;;;;;;;26.77;15.77;;;;;;;1.30;85.01;101396.25;5087534;28;20215;-50
2022/03/15 05:30:54;;;;;;;26.43;15.37;;;;;;;1.49;84.26;101392.69;5088186;28;20225;-49
2022/03/15 05:33:21;;;;;;;25.50;15.40;;;;;;;2.29;80.87;101412.69;5088035;28;20647;-49
2022/03/15 05:35:49;;;;;;;28.00;16.20;;;;;;;3.90;72.90;101405.00;5088731;28;20215;-49
2022/03/15 05:38:16;;;;;;;25.97;15.43;;;;;;;5.21;63.94;101398.09;5090413;28;20225;-48
2022/03/15 05:40:43;;;;;;;30.73;14.73;;;;;;;6.57;57.49;101406.06;5108741;28;20701;-49
2022/03/15 05:43:11;;;;;;;25.60;15.20;;;;;;;7.84;53.94;101408.00;5109551;28;20222;-50
2022/03/15 05:45:38;;;;;;;20.83;13.80;;;;;;;9.26;49.28;101392.13;5098329;28;20231;-49
2022/03/15 05:48:07;;;;;;;23.30;15.00;;;;;;;10.40;45.88;101408.22;5090738;28;20309;-49
2022/03/15 05:50:34;;;;;;;19.23;14.30;;;;;;;10.82;43.84;101412.63;5087417;28;20698;-49
2022/03/15 05:53:04;;;;;;;23.30;15.47;;;;;;;10.08;43.56;101398.59;5087651;28;20219;-49
2022/03/15 05:55:32;;;;;;;24.57;14.90;;;;;;;10.41;43.58;101408.22;5089222;28;20307;-49
2022/03/15 05:57:59;;;;;;;22.50;15.80;;;;;;;10.77;42.58;101411.75;5089521;28;20631;-48
2022/03/15 06:00:26;;;;;;;25.33;14.87;;;;;;;11.33;41.17;101416.03;5088977;28;20608;-49
2022/03/15 06:02:53;;;;;;;23.03;15.87;;;;;;;12.05;40.15;101420.22;5089505;28;20219;-48
2022/03/15 06:05:22;;;;;;;23.07;16.20;;;;;;;11.98;39.89;101413.28;5089037;28;20234;-49
2022/03/15 06:07:51;;;;;;;30.13;15.67;;;;;;;11.85;39.79;101419.44;5088673;28;20766;-49
2022/03/15 06:10:20;;;;;;;25.73;15.73;;;;;;;12.56;38.56;101410.34;5089208;28;20207;-49
2022/03/15 06:12:46;;;;;;;23.83;16.37;;;;;;;12.49;38.30;101403.47;5089438;28;20318;-51
2022/03/15 06:15:14;;;;;;;26.83;17.63;;;;;;;13.03;37.16;101407.41;5088758;28;20223;-50
2022/03/15 06:17:45;;;;;;;25.07;16.53;;;;;;;13.63;36.86;101416.41;5089119;28;20593;-48
2022/03/15 06:20:14;;;;;;;24.13;16.57;;;;;;;14.73;35.04;101415.81;5088881;28;20220;-48
2022/03/15 06:22:43;;;;;;;24.30;16.83;;;;;;;14.90;34.07;101423.38;5090065;28;20234;-53
2022/03/15 06:25:10;;;;;;;25.17;16.97;;;;;;;14.37;34.50;101405.88;5092544;28;20621;-52
2022/03/15 06:27:37;;;;;;;23.47;16.40;;;;;;;14.25;34.59;101409.53;5092759;28;20215;-54
2022/03/15 06:30:06;;;;;;;20.67;16.13;;;;;;;14.94;34.15;101409.38;5092528;28;20223;-53
2022/03/15 06:32:34;;;;;;;24.37;17.23;;;;;;;16.18;32.31;101402.66;5092155;28;20276;-54
2022/03/15 06:35:06;;;;;;;21.47;16.33;;;;;;;16.46;31.42;101402.94;5092452;28;20214;-53
2022/03/15 06:37:35;;;;;;;23.97;16.23;;;;;;;16.81;31.02;101405.63;5092065;28;20219;-52
2022/03/15 06:40:03;;;;;;;22.13;16.10;;;;;;;16.91;30.90;101407.09;5092694;28;20226;-53
2022/03/15 06:42:31;;;;;;;19.57;15.93;;;;;;;17.22;29.88;101398.44;5092420;28;20667;-53
2022/03/15 06:44:58;;;;;;;21.97;15.90;;;;;;;16.71;30.18;101393.59;5092255;28;20311;-53
2022/03/15 06:47:25;;;;;;;24.63;15.57;;;;;;;16.50;30.76;101394.94;5092121;28;20225;-49
2022/03/15 06:49:52;;;;;;;23.10;16.60;;;;;;;17.96;29.35;101403.41;5092076;28;20219;-51
2022/03/15 06:52:19;;;;;;;20.98;15.13;;;;;;;18.30;28.36;101413.78;5091528;28;20223;-50
2022/03/15 06:54:45;;;;;;;19.90;15.23;;;;;;;18.21;28.68;101416.69;5091787;28;20219;-50
2022/03/15 06:57:14;;;;;;;23.40;15.32;;;;;;;18.69;27.99;101414.34;5092278;28;20630;-50
2022/03/15 06:59:41;;;;;;;19.73;15.48;;;;;;;19.44;27.14;101413.53;5091519;28;20684;-50
2022/03/15 07:02:08;;;;;;;23.33;15.05;;;;;;;19.84;26.57;101412.16;5092040;28;20215;-49
2022/03/15 07:04:35;;;;;;;24.48;14.98;;;;;;;20.43;26.08;101403.78;5091747;28;20768;-51
2022/03/15 07:07:02;;;;;;;21.48;15.82;;;;;;;21.81;25.01;101397.84;5091317;28;20214;-50
2022/03/15 07:09:29;;;;;;;22.27;15.77;;;;;;;21.80;24.30;101395.28;5091845;28;20253;-50
2022/03/15 07:11:56;;;;;;;24.38;16.13;;;;;;;21.37;24.24;101398.06;5091554;28;20219;-50
2022/03/15 07:14:24;;;;;;;19.33;16.17;;;;;;;21.81;24.12;101405.78;5091157;28;20218;-52
2022/03/15 07:16:51;;;;;;;21.67;15.77;;;;;;;22.71;23.33;101407.69;5091793;28;20261;-50
2022/03/15 07:19:18;;;;;;;23.90;16.08;;;;;;;22.62;23.19;101409.94;5091675;28;20215;-50
2022/03/15 07:21:45;;;;;;;19.90;15.38;;;;;;;23.14;22.86;101406.44;5090926;28;20221;-51
2022/03/15 07:24:11;;;;;;;25.25;16.63;;;;;;;23.75;22.36;101403.28;5091391;28;20230;-51
2022/03/15 07:26:38;;;;;;;26.95;17.05;;;;;;;24.69;21.42;101406.94;5091335;28;20829;-51
2022/03/15 07:29:05;;;;;;;19.85;16.63;;;;;;;24.92;20.85;101391.41;5091557;28;20223;-51
2022/03/15 07:31:34;;;;;;;22.45;16.13;;;;;;;23.23;22.19;101399.84;5091362;28;20225;-51
2022/03/15 07:34:01;;;;;;;18.25;15.20;;;;;;;23.05;22.69;101406.91;5093244;28;20227;-54
2022/03/15 07:36:27;;;;;;;20.38;14.95;;;;;;;23.48;22.27;101410.00;5090539;28;20215;-51
2022/03/15 07:38:54;;;;;;;21.92;15.30;;;;;;;21.67;23.94;101410.84;5091417;28;20216;-52
2022/03/15 07:41:23;;;;;;;25.02;16.00;;;;;;;20.30;24.83;101401.56;5091083;28;20223;-51
2022/03/15 07:43:50;;;;;;;23.48;14.73;;;;;;;18.88;26.88;101401.44;5091404;28;20702;-52
2022/03/15 07:46:17;;;;;;;20.05;15.00;;;;;;;18.01;27.74;101396.25;5092045;28;20242;-51
2022/03/15 07:48:46;;;;;;;18.45;13.95;;;;;;;17.26;28.44;101393.09;5103684;28;20209;-51
2022/03/15 07:51:12;;;;;;;18.02;14.60;;;;;;;15.24;30.82;101395.75;5091558;28;20206;-51
2022/03/15 07:53:39;;;;;;;21.65;13.50;;;;;;;14.14;32.41;101398.34;5091149;28;20646;-51
2022/03/15 07:56:06;;;;;;;18.80;13.33;;;;;;;13.39;34.11;101403.63;5090631;28;20199;-52
2022/03/15 07:58:33;;;;;;;17.90;13.73;;;;;;;12.79;35.27;101395.41;5089751;28;20206;-51
2022/03/15 08:01:00;;;;;;;20.40;13.50;;;;;;;12.14;36.46;101391.53;5090229;28;20197;-51
2022/03/15 08:03:27;;;;;;;15.20;13.23;;;;;;;11.58;37.61;101403.00;5090014;28;20194;-50
2022/03/15 08:05:55;;;;;;;17.13;13.17;;;;;;;11.24;38.08;101399.59;5089960;28;20702;-50
2022/03/15 08:08:22;;;;;;;20.77;13.33;;;;;;;10.95;38.62;101387.50;5089714;28;20199;-51
2022/03/15 08:10:49;;;;;;;20.93;13.83;;;;;;;9.77;41.97;101392.44;5089658;28;20195;-51
2022/03/15 08:13:16;;;;;;;19.00;13.43;;;;;;;8.97;43.45;101389.34;5089873;28;20352;-51
2022/03/15 08:15:43;;;;;;;15.83;13.20;;;;;;;8.82;42.74;101368.50;5089990;28;20270;-51
2022/03/15 08:18:10;;;;;;;20.80;14.93;;;;;;;8.66;44.47;101381.31;5089721;28;20670;-52
2022/03/15 08:20:39;;;;;;;19.17;13.60;;;;;;;8.77;43.81;101381.41;5090150;28;20234;-50
2022/03/15 08:23:07;;;;;;;21.37;14.03;;;;;;;8.29;44.09;101359.38;5089290;28;20252;-50
2022/03/15 08:25:34;;;;;;;22.60;14.17;;;;;;;8.28;44.77;101386.09;5086398;28;20284;-51
2022/03/15 08:28:01;;;;;;;18.67;13.73;;;;;;;8.64;44.00;101379.56;5089369;28;20198;-51
2022/03/15 08:30:28;;;;;;;20.90;15.60;;;;;;;9.02;44.75;101372.13;5089644;28;20222;-51
2022/03/15 08:32:55;;;;;;;18.03;13.80;;;;;;;9.20;43.29;101368.78;5086902;28;20659;-52
2022/03/15 08:35:23;;;;;;;21.83;12.50;;;;;;;8.97;42.29;101366.03;5089968;28;20929;-51
2022/03/15 08:37:50;;;;;;;20.30;13.23;;;;;;;9.16;42.62;101369.59;5089475;28;20195;-51
2022/03/15 08:40:19;;;;;;;20.20;12.57;;;;;;;9.08;43.23;101370.44;5089273;28;20195;-53
2022/03/15 08:42:46;;;;;;;19.03;13.20;;;;;;;9.00;42.87;101363.47;5089171;28;20191;-54
2022/03/15 08:45:13;;;;;;;17.90;12.40;;;;;;;8.36;43.86;101370.66;5087890;28;20200;-53
2022/03/15 08:47:40;;;;;;;18.07;13.23;;;;;;;8.42;44.09;101373.34;5089500;28;20225;-52
2022/03/15 08:50:09;;;;;;;20.60;11.67;;;;;;;8.61;43.64;101374.34;5089829;28;20268;-54
2022/03/15 08:52:36;;;;;;;17.67;13.57;;;;;;;8.53;43.63;101347.56;5090677;28;20213;-53
2022/03/15 08:55:04;;;;;;;17.97;13.13;;;;;;;8.72;43.86;101360.66;5090615;28;20188;-53
2022/03/15 08:57:33;;;;;;;15.90;12.83;;;;;;;8.91;43.26;101364.28;5089919;28;20295;-53
2022/03/15 08:59:59;;;;;;;19.37;12.30;;;;;;;8.96;42.72;101347.03;5079784;28;20223;-52
2022/03/15 09:02:26;;;;;;;16.80;12.40;;;;;;;8.99;43.21;101347.06;5089400;28;20225;-54
2022/03/15 09:04:53;;;;;;;23.67;13.63;;;;;;;8.93;43.21;101348.72;5089333;28;20229;-52
2022/03/15 09:07:20;;;;;;;17.93;12.30;;;;;;;9.16;43.30;101333.31;5088716;28;20268;-52
2022/03/15 09:09:47;;;;;;;24.30;13.53;;;;;;;9.37;42.77;101334.31;5088637;28;20197;-51
2022/03/15 09:12:16;;;;;;;28.07;14.37;;;;;;;9.56;42.21;101331.81;5088549;28;20195;-53
2022/03/15 09:14:44;;;;;;;25.47;12.43;;;;;;;9.68;42.01;101331.88;5089209;28;20195;-51
2022/03/15 09:17:11;;;;;;;20.17;12.17;;;;;;;9.64;41.41;101306.78;5088935;28;20201;-52
2022/03/15 09:19:40;;;;;;;20.57;12.80;;;;;;;9.69;41.77;101323.25;5089455;28;20667;-52
2022/03/15 09:22:07;;;;;;;20.93;12.47;;;;;;;9.65;41.57;101329.28;5088474;28;20203;-50
2022/03/15 09:24:35;;;;;;;20.43;12.47;;;;;;;9.67;41.19;101306.81;5088480;28;20225;-50
2022/03/15 09:27:03;;;;;;;21.97;11.20;;;;;;;9.82;40.72;101323.25;5088668;28;20280;-53
2022/03/15 09:29:30;;;;;;;15.57;10.87;;;;;;;9.91;40.78;101317.25;5090087;28;20309;-53
2022/03/15 09:31:58;;;;;;;17.63;11.00;;;;;;;9.86;41.05;101311.19;5090043;28;20252;-53
2022/03/15 09:34:27;;;;;;;23.77;12.27;;;;;;;9.97;41.33;101309.47;5089588;28;20195;-53
2022/03/15 09:36:54;;;;;;;20.87;11.23;;;;;;;10.11;40.42;101305.19;5084272;28;20217;-54
2022/03/15 09:39:21;;;;;;;24.47;11.73;;;;;;;9.83;41.13;101295.59;5088955;28;20235;-54
2022/03/15 09:41:51;;;;;;;19.07;11.03;;;;;;;9.91;40.46;101293.91;5089148;28;20250;-51
2022/03/15 09:44:19;;;;;;;17.77;10.83;;;;;;;9.99;40.04;101294.78;5088422;28;20659;-53
2022/03/15 09:46:51;;;;;;;15.63;10.90;;;;;;;10.04;40.26;101287.91;5089064;28;20231;-53
2022/03/15 09:49:20;;;;;;;13.63;10.60;;;;;;;10.19;40.24;101280.16;5087978;28;20202;-50
2022/03/15 09:51:47;;;;;;;15.00;10.83;;;;;;;10.34;40.42;101260.25;5088141;28;20221;-51
2022/03/15 09:54:17;;;;;;;13.53;9.97;;;;;;;10.38;40.12;101268.06;5088089;28;20195;-50
2022/03/15 09:56:44;;;;;;;12.70;10.53;;;;;;;10.45;39.74;101262.00;5089797;28;20188;-50
2022/03/15 09:59:14;;;;;;;14.87;10.27;;;;;;;10.50;39.72;101254.19;5092423;28;20215;-51
2022/03/15 10:01:41;;;;;;;14.27;10.60;;;;;;;10.79;38.82;101255.03;5090769;28;20206;-51
2022/03/15 10:04:09;;;;;;;14.97;10.10;;;;;;;10.79;38.51;101231.66;5093500;28;20195;-52
2022/03/15 10:06:38;;;;;;;15.33;10.43;;;;;;;10.78;39.06;101250.69;5093460;28;20219;-51
2022/03/15 10:09:05;;;;;;;14.13;10.20;;;;;;;10.91;38.88;101244.59;5093540;28;20281;-50
2022/03/15 10:11:33;;;;;;;14.67;11.53;;;;;;;11.11;38.76;101234.16;5093519;28;20195;-51
2022/03/15 10:14:00;;;;;;;13.90;10.40;;;;;;;11.18;38.70;101232.38;5093293;28;20201;-50
2022/03/15 10:16:31;;;;;;;12.77;10.70;;;;;;;11.52;38.20;101223.53;5093340;28;20196;-51
2022/03/15 10:18:59;;;;;;;13.00;10.03;;;;;;;11.55;37.97;101220.94;5093303;28;20200;-50
2022/03/15 10:21:37;;;;;;;18.03;9.73;;;;;;;11.42;37.18;101200.22;5093225;28;20203;-51
2022/03/15 10:24:08;;;;;;;14.47;10.00;;;;;;;11.54;36.83;101220.94;5093075;28;20195;-52
2022/03/15 10:26:38;;;;;;;15.07;10.67;;;;;;;11.45;37.16;101208.88;5093513;28;20230;-53
2022/03/15 10:29:06;;;;;;;18.90;10.90;;;;;;;11.56;36.98;101204.47;5093308;28;20325;-54
2022/03/15 10:31:33;;;;;;;15.33;10.20;;;;;;;11.53;36.93;101199.28;5093305;28;20557;-52
2022/03/15 10:34:02;;;;;;;21.70;10.13;;;;;;;11.51;36.65;101193.22;5092949;28;20195;-54
2022/03/15 10:36:38;;;;;;;13.40;9.07;;;;;;;11.65;35.95;101195.72;5092962;28;20187;-54
2022/03/15 10:39:07;;;;;;;11.17;8.83;;;;;;;11.91;36.32;101185.19;5093195;28;20199;-53
2022/03/15 10:41:45;;;;;;;17.80;11.33;;;;;;;12.06;36.22;101190.28;5092989;28;20302;-53
2022/03/15 10:44:20;;;;;;;18.40;11.40;;;;;;;12.11;36.65;101177.22;5092870;28;20238;-53
2022/03/15 10:46:59;;;;;;;12.70;10.30;;;;;;;12.23;35.79;101177.97;5092713;28;20757;-54
2022/03/15 10:49:26;;;;;;;13.03;9.80;;;;;;;12.21;35.24;101166.69;5092973;28;20199;-54
2022/03/15 10:51:53;;;;;;;12.90;9.10;;;;;;;12.23;35.45;101162.34;5092650;28;20205;-53
2022/03/15 10:54:24;;;;;;;18.33;10.57;;;;;;;12.29;35.14;101154.50;5092760;28;20202;-54
2022/03/15 10:56:55;;;;;;;11.47;9.30;;;;;;;12.44;34.49;101155.19;5092841;28;20192;-52
2022/03/15 10:59:23;;;;;;;9.20;8.30;;;;;;;12.42;33.83;101149.13;5092278;28;20585;-54
2022/03/15 11:01:51;;;;;;;11.63;8.77;;;;;;;12.22;33.59;101138.94;5092806;28;20672;-53
2022/03/15 11:04:20;;;;;;;9.33;8.37;;;;;;;12.29;34.13;101138.88;5092337;28;20203;-53
2022/03/15 11:06:48;;;;;;;11.70;9.33;;;;;;;12.47;33.97;101131.75;5092409;28;20328;-53
2022/03/15 11:09:17;;;;;;;9.87;8.60;;;;;;;12.57;33.60;101130.75;5091522;28;20230;-53
2022/03/15 11:11:49;;;;;;;10.60;8.80;;;;;;;12.44;34.59;101092.69;5092312;28;20210;-54
2022/03/15 11:14:28;;;;;;;13.83;9.30;;;;;;;12.77;33.95;101112.28;5092392;28;20191;-53
2022/03/15 11:16:57;;;;;;;12.10;8.17;;;;;;;12.70;33.43;101101.94;5092190;28;20198;-52